Time;durP1;ratioP1;P1;durP2;ratioP2;P2;SDS_P1;SDS_P2;PMS_P1;PMS_P2;Temp;Humidity;BMP_temperature;BMP_pressure;BME280_temperature;BME280_humidity;BME280_pressure;Samples;Min_cycle;Max_cycle;Signal;HPM_P1;HPM_P2
2022/01/13 00:06:48;;;;;;;7.63;2.70;;;3.90;99.90;;;;;;19859810;29;20067;-45
2022/01/13 00:27:08;;;;;;;12.40;3.20;;;3.90;99.90;;;;;;19874076;29;20635;-45
2022/01/13 00:37:10;;;;;;;11.90;1.92;;;3.90;99.90;;;;;;19875606;29;20605;-45
2022/01/13 00:47:12;;;;;;;14.73;2.53;;;4.00;99.90;;;;;;19875214;29;20054;-45
2022/01/13 00:57:13;;;;;;;7.15;2.08;;;3.90;99.90;;;;;;19875061;29;20837;-45
2022/01/13 01:07:14;;;;;;;22.50;3.42;;;3.90;99.90;;;;;;19872918;29;20066;-45
2022/01/13 01:17:17;;;;;;;10.18;2.28;;;4.00;99.90;;;;;;19868939;29;20480;-45
2022/01/13 01:27:20;;;;;;;14.77;3.45;;;4.00;99.90;;;;;;19856627;29;20067;-45
2022/01/13 01:37:26;;;;;;;19.05;3.05;;;4.00;99.90;;;;;;19870787;29;20053;-45
2022/01/13 01:47:29;;;;;;;19.35;3.35;;;4.10;99.90;;;;;;19850801;29;20054;-45
2022/01/13 01:57:30;;;;;;;12.57;1.98;;;4.00;99.90;;;;;;19870517;29;21061;-45
2022/01/13 02:07:32;;;;;;;24.60;3.95;;;4.00;99.90;;;;;;19874306;29;20055;-45
2022/01/13 02:17:34;;;;;;;8.93;3.60;;;4.10;99.90;;;;;;19874251;29;20408;-45
2022/01/13 02:27:40;;;;;;;;;;;4.20;99.90;;;;;;19882437;29;20050;-45
2022/01/13 02:37:42;;;;;;;18.48;3.15;;;4.20;99.90;;;;;;19877038;29;20024;-45
2022/01/13 02:57:45;;;;;;;19.70;3.17;;;4.20;99.90;;;;;;19870317;29;20179;-45
2022/01/13 03:07:46;;;;;;;15.95;3.75;;;4.20;99.90;;;;;;19853792;29;20538;-45
2022/01/13 03:17:47;;;;;;;20.88;4.35;;;4.30;99.90;;;;;;19862361;29;20153;-45
2022/01/13 03:27:55;;;;;;;46.40;5.22;;;4.30;99.90;;;;;;19858227;29;20061;-45
2022/01/13 03:37:58;;;;;;;30.02;4.93;;;4.40;99.90;;;;;;19853403;29;20059;-45
2022/01/13 03:48:00;;;;;;;16.83;4.00;;;4.40;99.90;;;;;;19857950;29;20298;-45
2022/01/13 03:58:32;;;;;;;15.15;3.65;;;4.40;99.90;;;;;;19859438;29;20046;-46
2022/01/13 04:08:33;;;;;;;17.02;3.78;;;4.40;99.90;;;;;;19872715;29;20049;-45
2022/01/13 04:18:34;;;;;;;40.33;4.53;;;4.50;99.90;;;;;;19874224;29;20038;-45
2022/01/13 04:28:36;;;;;;;21.48;3.17;;;4.50;99.90;;;;;;19869947;29;20066;-45
2022/01/13 04:38:37;;;;;;;22.10;4.20;;;4.50;99.90;;;;;;19871972;29;20051;-45
2022/01/13 04:48:38;;;;;;;42.75;5.22;;;4.50;99.90;;;;;;19888044;29;20062;-45
2022/01/13 04:58:40;;;;;;;14.90;3.60;;;4.50;99.90;;;;;;19889992;29;20535;-45
2022/01/13 05:08:42;;;;;;;22.15;4.60;;;4.60;99.90;;;;;;19890916;29;20039;-45
2022/01/13 05:28:44;;;;;;;20.27;4.40;;;4.50;99.90;;;;;;19885412;29;20055;-46
2022/01/13 05:38:45;;;;;;;30.58;5.20;;;4.60;99.90;;;;;;19885087;29;20076;-45
2022/01/13 05:48:46;;;;;;;24.65;4.78;;;4.70;99.90;;;;;;19887666;29;20058;-45
2022/01/13 05:58:47;;;;;;;22.23;4.07;;;4.60;99.90;;;;;;19886579;29;20035;-46
2022/01/13 06:08:48;;;;;;;21.83;4.95;;;4.60;99.90;;;;;;19879238;29;20054;-45
2022/01/13 06:18:49;;;;;;;28.25;4.82;;;4.60;99.90;;;;;;19889389;29;20791;-45
2022/01/13 06:28:51;;;;;;;31.20;5.57;;;4.60;99.90;;;;;;19885292;29;20062;-45
2022/01/13 06:38:52;;;;;;;26.85;6.25;;;4.60;99.90;;;;;;19879612;29;20046;-45
2022/01/13 06:48:53;;;;;;;22.83;4.38;;;4.50;99.90;;;;;;19881809;29;20085;-45
2022/01/13 06:58:55;;;;;;;18.05;4.50;;;4.50;99.90;;;;;;19883595;29;20439;-45
2022/01/13 07:08:56;;;;;;;31.98;4.43;;;4.60;99.90;;;;;;19882748;29;20475;-45
2022/01/13 07:18:57;;;;;;;21.88;4.55;;;4.50;99.90;;;;;;19879688;29;20401;-45
2022/01/13 07:28:58;;;;;;;27.85;5.13;;;4.60;99.90;;;;;;19878519;29;20385;-45
2022/01/13 07:38:59;;;;;;;27.98;4.28;;;4.60;99.90;;;;;;19882528;29;20047;-45
2022/01/13 07:49:01;;;;;;;20.95;4.78;;;4.70;99.90;;;;;;19878060;29;20062;-45
2022/01/13 07:59:02;;;;;;;14.45;3.95;;;4.60;99.90;;;;;;19881215;29;20408;-45
2022/01/13 08:09:03;;;;;;;36.13;6.95;;;4.70;99.90;;;;;;19875911;29;20065;-45
2022/01/13 08:29:24;;;;;;;21.55;6.30;;;4.70;99.90;;;;;;19862119;29;20336;-45
2022/01/13 08:39:25;;;;;;;21.30;5.65;;;4.70;99.90;;;;;;19870147;29;20042;-45
2022/01/13 08:49:26;;;;;;;25.48;8.02;;;4.80;99.90;;;;;;19875029;29;20054;-45
2022/01/13 08:59:28;;;;;;;24.88;6.70;;;4.90;99.90;;;;;;19883688;29;20518;-46
2022/01/13 09:09:29;;;;;;;23.63;6.10;;;5.00;99.90;;;;;;19878865;29;20042;-46
2022/01/13 09:19:30;;;;;;;18.77;4.68;;;5.10;99.90;;;;;;19882541;29;20042;-46
2022/01/13 09:29:32;;;;;;;25.63;4.82;;;5.20;99.90;;;;;;19881867;29;20063;-46
2022/01/13 09:39:33;;;;;;;34.58;6.93;;;5.30;99.90;;;;;;19879925;29;20387;-45
2022/01/13 09:49:35;;;;;;;19.35;4.65;;;5.40;99.90;;;;;;19869451;29;20061;-45
2022/01/13 09:59:36;;;;;;;24.80;7.30;;;5.40;99.90;;;;;;19878941;29;20043;-46
2022/01/13 10:09:59;;;;;;;17.42;4.95;;;5.50;99.90;;;;;;19878310;29;20046;-46
2022/01/13 10:20:10;;;;;;;19.10;5.88;;;5.60;99.90;;;;;;19876737;29;20047;-46
2022/01/13 10:30:17;;;;;;;25.88;6.28;;;5.70;99.90;;;;;;19877111;29;20396;-45
2022/01/13 10:40:23;;;;;;;22.17;5.60;;;5.70;99.90;;;;;;19870314;29;20049;-46
2022/01/13 10:50:53;;;;;;;15.27;4.88;;;5.60;99.90;;;;;;19870364;29;20050;-45
2022/01/13 11:00:55;;;;;;;24.77;6.40;;;5.60;99.90;;;;;;19869641;29;20062;-45
2022/01/13 11:10:59;;;;;;;13.85;5.13;;;5.70;99.90;;;;;;19862576;29;20062;-46
2022/01/13 11:21:02;;;;;;;23.02;5.10;;;5.70;99.90;;;;;;19870408;29;20056;-45
2022/01/13 11:31:08;;;;;;;25.02;5.80;;;5.80;99.90;;;;;;19866382;29;20046;-46
2022/01/13 11:41:09;;;;;;;24.33;7.10;;;6.00;99.90;;;;;;19858232;29;20076;-46
2022/01/13 11:51:20;;;;;;;31.58;7.18;;;6.10;99.90;;;;;;19862680;29;20124;-46
2022/01/13 12:01:29;;;;;;;29.92;7.55;;;6.20;99.90;;;;;;19866758;29;20586;-46
2022/01/13 12:11:37;;;;;;;27.15;7.63;;;6.00;99.90;;;;;;19867450;29;20052;-46
2022/01/13 12:21:46;;;;;;;32.58;9.43;;;5.90;99.90;;;;;;19876851;29;20063;-46
2022/01/13 12:31:50;;;;;;;26.58;6.75;;;6.00;99.90;;;;;;19885506;29;20281;-46
2022/01/13 12:42:01;;;;;;;34.15;9.25;;;6.00;99.90;;;;;;19879677;29;20058;-45
2022/01/13 12:52:04;;;;;;;28.52;6.45;;;6.10;99.90;;;;;;19882775;29;20063;-45
2022/01/13 13:02:05;;;;;;;28.73;8.20;;;6.10;99.90;;;;;;19878684;29;20053;-45
2022/01/13 13:12:11;;;;;;;30.08;9.02;;;6.00;99.90;;;;;;19874799;29;20121;-46
2022/01/13 13:22:13;;;;;;;30.75;8.18;;;6.00;99.90;;;;;;19875689;29;20041;-46
2022/01/13 13:32:16;;;;;;;21.75;7.43;;;6.00;99.90;;;;;;19876089;29;20043;-45
2022/01/13 13:42:17;;;;;;;25.67;7.28;;;5.80;99.90;;;;;;19877584;29;20069;-46
2022/01/13 13:52:19;;;;;;;30.65;9.38;;;5.80;99.90;;;;;;19860385;29;20050;-45
2022/01/13 14:02:33;;;;;;;20.20;7.18;;;5.80;99.90;;;;;;19878117;29;20047;-46
2022/01/13 14:12:43;;;;;;;36.20;9.18;;;5.80;99.90;;;;;;19873619;29;20038;-45
2022/01/13 14:22:44;;;;;;;34.45;8.13;;;5.80;99.90;;;;;;19867742;29;20050;-46
2022/01/13 14:32:45;;;;;;;24.15;8.82;;;5.80;99.90;;;;;;19867462;29;20057;-45
2022/01/13 14:42:47;;;;;;;30.25;9.65;;;5.80;99.90;;;;;;19874777;29;20507;-45
2022/01/13 14:52:52;;;;;;;32.35;8.27;;;5.90;99.90;;;;;;19886042;29;20065;-46
2022/01/13 15:02:54;;;;;;;28.02;9.93;;;5.80;99.90;;;;;;19867604;29;20047;-45
2022/01/13 15:12:55;;;;;;;20.10;6.82;;;5.90;99.90;;;;;;19870092;29;20388;-45
2022/01/13 15:22:56;;;;;;;26.73;8.20;;;6.00;99.90;;;;;;19865816;29;20052;-46
2022/01/13 15:32:59;;;;;;;34.88;8.50;;;6.00;99.90;;;;;;19846409;29;20413;-46
2022/01/13 15:43:02;;;;;;;33.60;8.73;;;6.00;99.90;;;;;;19866474;29;20280;-46
2022/01/13 15:53:05;;;;;;;18.08;7.38;;;6.10;99.90;;;;;;19875543;29;20051;-46
2022/01/13 16:03:09;;;;;;;34.10;9.95;;;6.10;99.90;;;;;;19944777;29;20049;-45
2022/01/13 16:13:10;;;;;;;23.13;7.95;;;6.00;99.90;;;;;;19955087;29;20057;-45
2022/01/13 16:23:12;;;;;;;22.10;7.85;;;6.00;99.90;;;;;;19945613;29;20044;-45
2022/01/13 16:33:14;;;;;;;14.52;5.53;;;6.00;99.90;;;;;;19943600;29;20168;-46
2022/01/13 16:43:16;;;;;;;23.50;6.35;;;6.00;99.90;;;;;;19932416;29;20043;-45
2022/01/13 16:53:17;;;;;;;24.88;7.18;;;5.90;99.90;;;;;;19931663;29;20054;-45
2022/01/13 17:03:19;;;;;;;32.63;8.65;;;5.90;99.90;;;;;;19931380;29;20027;-45
2022/01/13 17:13:21;;;;;;;28.40;8.13;;;5.90;99.90;;;;;;19935038;29;20066;-46
2022/01/13 17:23:22;;;;;;;22.45;5.97;;;5.90;99.90;;;;;;19905186;29;20073;-46
2022/01/13 17:33:25;;;;;;;20.83;6.68;;;5.90;99.90;;;;;;19927874;29;20050;-47
2022/01/13 17:43:28;;;;;;;29.75;7.00;;;5.90;99.90;;;;;;19910128;29;20041;-46
2022/01/13 17:53:31;;;;;;;26.73;7.15;;;5.80;99.90;;;;;;19926330;29;20038;-45
2022/01/13 18:03:32;;;;;;;19.85;7.57;;;5.80;99.90;;;;;;19909487;29;20101;-46
2022/01/13 18:13:34;;;;;;;19.15;4.90;;;5.80;99.90;;;;;;19904646;29;20047;-45
2022/01/13 18:33:05;;;;;;;18.58;4.32;;;5.90;99.90;;;;;;20712316;27;20431;-46
2022/01/13 18:43:06;;;;;;;15.43;3.58;;;5.70;99.90;;;;;;20693415;28;20034;-47
2022/01/13 18:53:09;;;;;;;16.27;4.45;;;5.70;99.90;;;;;;20626386;28;20594;-46
2022/01/13 19:03:10;;;;;;;16.05;4.88;;;5.70;99.90;;;;;;20647240;28;20384;-46
2022/01/13 19:13:13;;;;;;;24.25;6.70;;;5.70;99.90;;;;;;20642058;28;20419;-46
2022/01/13 19:23:14;;;;;;;26.70;7.00;;;5.80;99.90;;;;;;20633693;28;20177;-46
2022/01/13 19:33:14;;;;;;;18.05;6.82;;;5.80;99.90;;;;;;20634968;28;20039;-45
2022/01/13 19:43:15;;;;;;;16.73;5.68;;;5.70;99.90;;;;;;20592022;28;20786;-46
2022/01/13 19:53:16;;;;;;;16.40;5.82;;;5.60;99.90;;;;;;20571950;28;20038;-45
2022/01/13 20:03:17;;;;;;;18.58;5.18;;;5.60;99.90;;;;;;20568052;28;20070;-46
2022/01/13 20:13:18;;;;;;;14.95;5.43;;;5.60;99.90;;;;;;20582683;28;20052;-46
2022/01/13 20:23:21;;;;;;;19.17;5.97;;;5.50;99.90;;;;;;20571617;28;20657;-46
2022/01/13 20:33:22;;;;;;;12.05;4.10;;;5.50;99.90;;;;;;20576878;28;20078;-46
2022/01/13 20:43:24;;;;;;;22.97;5.60;;;5.50;99.90;;;;;;20574817;28;20047;-46
2022/01/13 20:53:25;;;;;;;18.85;5.47;;;5.50;99.90;;;;;;20581178;28;20712;-46
2022/01/13 21:03:25;;;;;;;17.85;5.00;;;5.50;99.90;;;;;;20587180;28;20112;-45
2022/01/13 21:13:28;;;;;;;26.20;5.82;;;5.50;99.90;;;;;;20560790;28;20042;-46
2022/01/13 21:23:29;;;;;;;21.58;5.72;;;5.50;99.90;;;;;;20579345;28;20130;-46
2022/01/13 21:33:30;;;;;;;22.67;4.93;;;5.60;99.90;;;;;;20569511;28;20551;-45
2022/01/13 21:43:32;;;;;;;9.40;3.20;;;5.50;99.90;;;;;;20545226;28;20035;-46
2022/01/13 21:53:32;;;;;;;9.70;3.60;;;5.40;99.90;;;;;;20508011;28;79558;-46
2022/01/13 22:03:34;;;;;;;14.07;4.07;;;5.30;99.90;;;;;;20516553;28;20553;-46
2022/01/13 22:13:35;;;;;;;8.63;4.63;;;5.20;99.90;;;;;;20494116;28;20496;-45
2022/01/13 22:23:36;;;;;;;10.52;3.75;;;5.10;99.90;;;;;;20468741;28;20035;-45
2022/01/13 22:33:37;;;;;;;11.45;3.20;;;4.90;99.90;;;;;;20469093;28;20109;-45
2022/01/13 22:43:38;;;;;;;10.55;4.45;;;4.90;99.90;;;;;;20467135;28;20162;-46
2022/01/13 22:53:38;;;;;;;11.55;2.83;;;4.70;99.90;;;;;;20470438;28;20043;-45
2022/01/13 23:03:39;;;;;;;10.73;3.03;;;4.70;99.90;;;;;;20465044;28;20055;-45
2022/01/13 23:13:45;;;;;;;12.88;3.40;;;4.70;99.90;;;;;;20482159;28;20293;-45
2022/01/13 23:23:48;;;;;;;15.02;3.72;;;4.60;99.90;;;;;;20480515;28;20510;-45
2022/01/13 23:33:49;;;;;;;9.70;3.25;;;4.60;99.90;;;;;;20488366;28;20492;-45
2022/01/13 23:43:49;;;;;;;13.00;3.90;;;4.60;99.90;;;;;;20464120;28;20723;-45
2022/01/13 23:53:53;;;;;;;12.70;4.10;;;4.60;99.90;;;;;;20483390;28;20299;-45
